sensor_id;sensor_type;location;lat;lon;timestamp;P1;durP1;ratioP1;P2;durP2;ratioP2
33453;SDS011;39400;49.744;7.012;2023-08-01T00:00:30;10.65;;;5.93;;
33453;SDS011;39400;49.744;7.012;2023-08-01T00:02:56;8.18;;;4.97;;
33453;SDS011;39400;49.744;7.012;2023-08-01T00:05:22;12.07;;;6.05;;
33453;SDS011;39400;49.744;7.012;2023-08-01T00:07:47;10.02;;;6.28;;
33453;SDS011;39400;49.744;7.012;2023-08-01T00:10:13;14.48;;;7.25;;
33453;SDS011;39400;49.744;7.012;2023-08-01T00:12:38;14.95;;;6.97;;
33453;SDS011;39400;49.744;7.012;2023-08-01T00:15:04;12.02;;;6.20;;
33453;SDS011;39400;49.744;7.012;2023-08-01T00:17:29;11.38;;;5.55;;
33453;SDS011;39400;49.744;7.012;2023-08-01T00:19:55;15.90;;;4.50;;
33453;SDS011;39400;49.744;7.012;2023-08-01T00:22:20;6.63;;;3.38;;
33453;SDS011;39400;49.744;7.012;2023-08-01T00:24:46;7.03;;;4.13;;
33453;SDS011;39400;49.744;7.012;2023-08-01T00:27:11;5.78;;;3.40;;
33453;SDS011;39400;49.744;7.012;2023-08-01T00:29:37;5.82;;;2.50;;
33453;SDS011;39400;49.744;7.012;2023-08-01T00:32:02;5.00;;;2.38;;
33453;SDS011;39400;49.744;7.012;2023-08-01T00:34:28;3.40;;;1.92;;
33453;SDS011;39400;49.744;7.012;2023-08-01T00:36:53;6.00;;;2.45;;
33453;SDS011;39400;49.744;7.012;2023-08-01T00:39:18;6.10;;;2.40;;
33453;SDS011;39400;49.744;7.012;2023-08-01T00:41:44;7.47;;;2.17;;
33453;SDS011;39400;49.744;7.012;2023-08-01T00:44:09;4.85;;;2.38;;
33453;SDS011;39400;49.744;7.012;2023-08-01T00:46:35;4.15;;;2.03;;
33453;SDS011;39400;49.744;7.012;2023-08-01T00:49:00;4.13;;;1.42;;
33453;SDS011;39400;49.744;7.012;2023-08-01T00:51:26;2.45;;;1.27;;
33453;SDS011;39400;49.744;7.012;2023-08-01T00:53:51;2.55;;;1.42;;
33453;SDS011;39400;49.744;7.012;2023-08-01T00:56:18;3.95;;;1.70;;
33453;SDS011;39400;49.744;7.012;2023-08-01T00:58:44;3.25;;;1.40;;
33453;SDS011;39400;49.744;7.012;2023-08-01T01:01:09;1.65;;;1.02;;
33453;SDS011;39400;49.744;7.012;2023-08-01T01:03:36;3.45;;;0.90;;
33453;SDS011;39400;49.744;7.012;2023-08-01T01:06:06;6.95;;;1.10;;
33453;SDS011;39400;49.744;7.012;2023-08-01T01:08:52;2.55;;;1.45;;
33453;SDS011;39400;49.744;7.012;2023-08-01T01:11:17;1.70;;;0.90;;
33453;SDS011;39400;49.744;7.012;2023-08-01T01:13:42;1.42;;;0.90;;
33453;SDS011;39400;49.744;7.012;2023-08-01T01:16:08;3.58;;;0.82;;
33453;SDS011;39400;49.744;7.012;2023-08-01T01:18:33;1.75;;;0.80;;
33453;SDS011;39400;49.744;7.012;2023-08-01T01:20:59;1.63;;;0.70;;
33453;SDS011;39400;49.744;7.012;2023-08-01T01:23:24;1.70;;;0.82;;
33453;SDS011;39400;49.744;7.012;2023-08-01T01:25:52;3.90;;;1.30;;
33453;SDS011;39400;49.744;7.012;2023-08-01T01:28:19;0.98;;;0.85;;
33453;SDS011;39400;49.744;7.012;2023-08-01T01:30:45;4.72;;;1.25;;
33453;SDS011;39400;49.744;7.012;2023-08-01T01:33:11;2.40;;;1.13;;
33453;SDS011;39400;49.744;7.012;2023-08-01T01:35:36;1.42;;;1.05;;
33453;SDS011;39400;49.744;7.012;2023-08-01T01:38:02;2.58;;;1.20;;
33453;SDS011;39400;49.744;7.012;2023-08-01T01:40:28;1.67;;;0.80;;
33453;SDS011;39400;49.744;7.012;2023-08-01T01:42:53;0.60;;;0.60;;
33453;SDS011;39400;49.744;7.012;2023-08-01T01:45:19;5.15;;;1.30;;
33453;SDS011;39400;49.744;7.012;2023-08-01T01:47:44;1.30;;;1.00;;
33453;SDS011;39400;49.744;7.012;2023-08-01T01:50:09;5.28;;;1.27;;
33453;SDS011;39400;49.744;7.012;2023-08-01T01:52:35;1.52;;;1.13;;
33453;SDS011;39400;49.744;7.012;2023-08-01T01:55:00;2.05;;;1.33;;
33453;SDS011;39400;49.744;7.012;2023-08-01T01:57:26;1.70;;;0.88;;
33453;SDS011;39400;49.744;7.012;2023-08-01T01:59:52;1.92;;;1.13;;
33453;SDS011;39400;49.744;7.012;2023-08-01T02:02:17;2.70;;;1.80;;
33453;SDS011;39400;49.744;7.012;2023-08-01T02:04:42;3.65;;;1.77;;
33453;SDS011;39400;49.744;7.012;2023-08-01T02:07:09;5.50;;;2.08;;
33453;SDS011;39400;49.744;7.012;2023-08-01T02:09:35;3.65;;;1.60;;
33453;SDS011;39400;49.744;7.012;2023-08-01T02:12:00;4.68;;;2.60;;
33453;SDS011;39400;49.744;7.012;2023-08-01T02:14:26;2.25;;;1.77;;
33453;SDS011;39400;49.744;7.012;2023-08-01T02:16:52;6.63;;;2.22;;
33453;SDS011;39400;49.744;7.012;2023-08-01T02:19:17;5.20;;;2.03;;
33453;SDS011;39400;49.744;7.012;2023-08-01T02:21:43;7.07;;;2.58;;
33453;SDS011;39400;49.744;7.012;2023-08-01T02:24:09;5.95;;;2.25;;
33453;SDS011;39400;49.744;7.012;2023-08-01T02:26:35;3.08;;;1.45;;
33453;SDS011;39400;49.744;7.012;2023-08-01T02:29:00;2.47;;;1.80;;
33453;SDS011;39400;49.744;7.012;2023-08-01T02:31:26;5.05;;;1.73;;
33453;SDS011;39400;49.744;7.012;2023-08-01T02:33:51;3.63;;;1.95;;
33453;SDS011;39400;49.744;7.012;2023-08-01T02:36:16;3.00;;;1.40;;
33453;SDS011;39400;49.744;7.012;2023-08-01T02:38:42;5.32;;;1.30;;
33453;SDS011;39400;49.744;7.012;2023-08-01T02:41:07;4.00;;;1.30;;
33453;SDS011;39400;49.744;7.012;2023-08-01T02:43:32;4.32;;;1.20;;
33453;SDS011;39400;49.744;7.012;2023-08-01T02:45:58;4.18;;;1.00;;
33453;SDS011;39400;49.744;7.012;2023-08-01T02:48:23;2.72;;;1.10;;
33453;SDS011;39400;49.744;7.012;2023-08-01T02:50:48;3.85;;;0.93;;
33453;SDS011;39400;49.744;7.012;2023-08-01T02:53:14;2.40;;;1.00;;
33453;SDS011;39400;49.744;7.012;2023-08-01T02:55:39;1.42;;;0.90;;
33453;SDS011;39400;49.744;7.012;2023-08-01T02:58:05;0.73;;;0.63;;
33453;SDS011;39400;49.744;7.012;2023-08-01T03:00:30;0.60;;;0.60;;
33453;SDS011;39400;49.744;7.012;2023-08-01T03:02:55;0.65;;;0.50;;
33453;SDS011;39400;49.744;7.012;2023-08-01T03:05:21;1.05;;;0.70;;
33453;SDS011;39400;49.744;7.012;2023-08-01T03:07:46;1.77;;;0.68;;
33453;SDS011;39400;49.744;7.012;2023-08-01T03:10:12;1.42;;;0.73;;
33453;SDS011;39400;49.744;7.012;2023-08-01T03:12:37;0.60;;;0.60;;
33453;SDS011;39400;49.744;7.012;2023-08-01T03:15:03;0.50;;;0.50;;
33453;SDS011;39400;49.744;7.012;2023-08-01T03:17:28;0.40;;;0.40;;
33453;SDS011;39400;49.744;7.012;2023-08-01T03:19:54;1.10;;;0.68;;
33453;SDS011;39400;49.744;7.012;2023-08-01T03:22:19;0.82;;;0.50;;
33453;SDS011;39400;49.744;7.012;2023-08-01T03:24:45;0.70;;;0.47;;
33453;SDS011;39400;49.744;7.012;2023-08-01T03:27:10;0.40;;;0.38;;
33453;SDS011;39400;49.744;7.012;2023-08-01T03:29:35;0.52;;;0.40;;
33453;SDS011;39400;49.744;7.012;2023-08-01T03:32:01;0.68;;;0.40;;
33453;SDS011;39400;49.744;7.012;2023-08-01T03:34:26;0.40;;;0.40;;
33453;SDS011;39400;49.744;7.012;2023-08-01T03:36:52;1.50;;;0.60;;
33453;SDS011;39400;49.744;7.012;2023-08-01T03:39:17;0.40;;;0.40;;
33453;SDS011;39400;49.744;7.012;2023-08-01T03:41:42;2.63;;;0.50;;
33453;SDS011;39400;49.744;7.012;2023-08-01T03:44:08;0.47;;;0.43;;
33453;SDS011;39400;49.744;7.012;2023-08-01T03:46:33;0.30;;;0.30;;
33453;SDS011;39400;49.744;7.012;2023-08-01T03:48:58;0.50;;;0.40;;
33453;SDS011;39400;49.744;7.012;2023-08-01T03:51:24;1.05;;;0.70;;
33453;SDS011;39400;49.744;7.012;2023-08-01T03:53:50;0.40;;;0.40;;
33453;SDS011;39400;49.744;7.012;2023-08-01T03:56:16;1.05;;;0.43;;
33453;SDS011;39400;49.744;7.012;2023-08-01T03:58:42;2.08;;;0.50;;
33453;SDS011;39400;49.744;7.012;2023-08-01T04:01:08;0.32;;;0.30;;
33453;SDS011;39400;49.744;7.012;2023-08-01T04:03:33;0.93;;;0.43;;
33453;SDS011;39400;49.744;7.012;2023-08-01T04:05:59;0.30;;;0.30;;
33453;SDS011;39400;49.744;7.012;2023-08-01T04:08:24;0.30;;;0.30;;
33453;SDS011;39400;49.744;7.012;2023-08-01T04:10:50;0.30;;;0.28;;
33453;SDS011;39400;49.744;7.012;2023-08-01T04:13:15;0.30;;;0.30;;
33453;SDS011;39400;49.744;7.012;2023-08-01T04:15:41;0.38;;;0.20;;
33453;SDS011;39400;49.744;7.012;2023-08-01T04:18:06;0.30;;;0.30;;
33453;SDS011;39400;49.744;7.012;2023-08-01T04:20:31;0.93;;;0.38;;
33453;SDS011;39400;49.744;7.012;2023-08-01T04:22:57;1.10;;;0.28;;
33453;SDS011;39400;49.744;7.012;2023-08-01T04:25:22;0.38;;;0.28;;
33453;SDS011;39400;49.744;7.012;2023-08-01T04:27:48;0.20;;;0.20;;
33453;SDS011;39400;49.744;7.012;2023-08-01T04:30:13;0.10;;;0.10;;
33453;SDS011;39400;49.744;7.012;2023-08-01T04:32:38;0.43;;;0.30;;
33453;SDS011;39400;49.744;7.012;2023-08-01T04:35:04;0.30;;;0.30;;
33453;SDS011;39400;49.744;7.012;2023-08-01T04:37:29;0.80;;;0.40;;
33453;SDS011;39400;49.744;7.012;2023-08-01T04:39:55;0.47;;;0.32;;
33453;SDS011;39400;49.744;7.012;2023-08-01T04:42:20;1.05;;;0.30;;
33453;SDS011;39400;49.744;7.012;2023-08-01T04:44:45;2.28;;;0.20;;
33453;SDS011;39400;49.744;7.012;2023-08-01T04:47:11;0.30;;;0.30;;
33453;SDS011;39400;49.744;7.012;2023-08-01T04:49:36;1.65;;;0.30;;
33453;SDS011;39400;49.744;7.012;2023-08-01T04:52:02;1.42;;;0.45;;
33453;SDS011;39400;49.744;7.012;2023-08-01T04:54:27;0.40;;;0.40;;
33453;SDS011;39400;49.744;7.012;2023-08-01T04:56:53;0.98;;;0.60;;
33453;SDS011;39400;49.744;7.012;2023-08-01T04:59:18;0.30;;;0.30;;
33453;SDS011;39400;49.744;7.012;2023-08-01T05:01:43;0.38;;;0.30;;
33453;SDS011;39400;49.744;7.012;2023-08-01T05:04:09;0.82;;;0.50;;
33453;SDS011;39400;49.744;7.012;2023-08-01T05:06:34;1.85;;;0.70;;
33453;SDS011;39400;49.744;7.012;2023-08-01T05:09:00;0.77;;;0.50;;
33453;SDS011;39400;49.744;7.012;2023-08-01T05:11:25;1.17;;;0.90;;
33453;SDS011;39400;49.744;7.012;2023-08-01T05:13:50;0.55;;;0.50;;
33453;SDS011;39400;49.744;7.012;2023-08-01T05:16:16;1.00;;;0.65;;
33453;SDS011;39400;49.744;7.012;2023-08-01T05:18:41;0.75;;;0.45;;
33453;SDS011;39400;49.744;7.012;2023-08-01T05:21:07;0.45;;;0.45;;
33453;SDS011;39400;49.744;7.012;2023-08-01T05:23:32;0.55;;;0.50;;
33453;SDS011;39400;49.744;7.012;2023-08-01T05:25:57;0.70;;;0.50;;
33453;SDS011;39400;49.744;7.012;2023-08-01T05:28:23;1.25;;;0.70;;
33453;SDS011;39400;49.744;7.012;2023-08-01T05:30:48;0.95;;;0.50;;
33453;SDS011;39400;49.744;7.012;2023-08-01T05:33:13;2.15;;;0.60;;
33453;SDS011;39400;49.744;7.012;2023-08-01T05:35:39;2.83;;;0.50;;
33453;SDS011;39400;49.744;7.012;2023-08-01T05:38:04;0.60;;;0.40;;
33453;SDS011;39400;49.744;7.012;2023-08-01T05:40:30;2.30;;;0.60;;
33453;SDS011;39400;49.744;7.012;2023-08-01T05:42:55;0.70;;;0.50;;
33453;SDS011;39400;49.744;7.012;2023-08-01T05:45:20;0.43;;;0.30;;
33453;SDS011;39400;49.744;7.012;2023-08-01T05:47:46;0.40;;;0.40;;
33453;SDS011;39400;49.744;7.012;2023-08-01T05:50:11;0.65;;;0.50;;
33453;SDS011;39400;49.744;7.012;2023-08-01T05:52:37;1.23;;;0.38;;
33453;SDS011;39400;49.744;7.012;2023-08-01T05:55:02;0.95;;;0.30;;
33453;SDS011;39400;49.744;7.012;2023-08-01T05:57:28;0.40;;;0.40;;
33453;SDS011;39400;49.744;7.012;2023-08-01T05:59:54;2.88;;;0.30;;
33453;SDS011;39400;49.744;7.012;2023-08-01T06:02:20;0.90;;;0.30;;
33453;SDS011;39400;49.744;7.012;2023-08-01T06:04:45;0.20;;;0.20;;
33453;SDS011;39400;49.744;7.012;2023-08-01T06:07:10;0.40;;;0.20;;
33453;SDS011;39400;49.744;7.012;2023-08-01T06:09:36;0.25;;;0.25;;
33453;SDS011;39400;49.744;7.012;2023-08-01T06:12:01;1.30;;;0.30;;
33453;SDS011;39400;49.744;7.012;2023-08-01T06:14:27;0.85;;;0.40;;
33453;SDS011;39400;49.744;7.012;2023-08-01T06:16:52;0.75;;;0.40;;
33453;SDS011;39400;49.744;7.012;2023-08-01T06:19:17;3.38;;;0.73;;
33453;SDS011;39400;49.744;7.012;2023-08-01T06:21:43;0.30;;;0.30;;
33453;SDS011;39400;49.744;7.012;2023-08-01T06:24:08;0.73;;;0.38;;
33453;SDS011;39400;49.744;7.012;2023-08-01T06:26:34;0.90;;;0.55;;
33453;SDS011;39400;49.744;7.012;2023-08-01T06:28:59;0.93;;;0.65;;
33453;SDS011;39400;49.744;7.012;2023-08-01T06:31:25;1.27;;;0.95;;
33453;SDS011;39400;49.744;7.012;2023-08-01T06:33:50;0.40;;;0.40;;
33453;SDS011;39400;49.744;7.012;2023-08-01T06:36:16;1.75;;;0.98;;
33453;SDS011;39400;49.744;7.012;2023-08-01T06:38:41;1.70;;;0.80;;
33453;SDS011;39400;49.744;7.012;2023-08-01T06:41:07;2.33;;;0.63;;
33453;SDS011;39400;49.744;7.012;2023-08-01T06:43:32;1.13;;;0.68;;
33453;SDS011;39400;49.744;7.012;2023-08-01T06:45:58;3.45;;;1.13;;
33453;SDS011;39400;49.744;7.012;2023-08-01T06:48:24;2.70;;;1.30;;
33453;SDS011;39400;49.744;7.012;2023-08-01T06:50:49;2.67;;;1.30;;
33453;SDS011;39400;49.744;7.012;2023-08-01T06:53:15;6.03;;;1.10;;
33453;SDS011;39400;49.744;7.012;2023-08-01T06:55:40;3.75;;;1.27;;
33453;SDS011;39400;49.744;7.012;2023-08-01T06:58:05;2.90;;;1.63;;
33453;SDS011;39400;49.744;7.012;2023-08-01T07:00:31;1.67;;;1.13;;
33453;SDS011;39400;49.744;7.012;2023-08-01T07:02:56;3.65;;;1.70;;
33453;SDS011;39400;49.744;7.012;2023-08-01T07:05:21;1.98;;;1.40;;
33453;SDS011;39400;49.744;7.012;2023-08-01T07:07:47;5.53;;;1.52;;
33453;SDS011;39400;49.744;7.012;2023-08-01T07:10:12;5.97;;;1.75;;
33453;SDS011;39400;49.744;7.012;2023-08-01T07:12:37;5.05;;;1.42;;
33453;SDS011;39400;49.744;7.012;2023-08-01T07:15:03;2.90;;;1.30;;
33453;SDS011;39400;49.744;7.012;2023-08-01T07:17:28;3.33;;;1.38;;
33453;SDS011;39400;49.744;7.012;2023-08-01T07:19:53;2.72;;;1.10;;
33453;SDS011;39400;49.744;7.012;2023-08-01T07:22:19;3.38;;;1.30;;
33453;SDS011;39400;49.744;7.012;2023-08-01T07:24:44;9.73;;;1.77;;
33453;SDS011;39400;49.744;7.012;2023-08-01T07:27:09;5.70;;;2.33;;
33453;SDS011;39400;49.744;7.012;2023-08-01T07:29:35;6.30;;;1.30;;
33453;SDS011;39400;49.744;7.012;2023-08-01T07:32:00;3.80;;;1.48;;
33453;SDS011;39400;49.744;7.012;2023-08-01T07:34:26;3.08;;;1.58;;
33453;SDS011;39400;49.744;7.012;2023-08-01T07:36:51;7.95;;;1.92;;
33453;SDS011;39400;49.744;7.012;2023-08-01T07:39:17;4.47;;;1.70;;
33453;SDS011;39400;49.744;7.012;2023-08-01T07:41:42;5.38;;;2.08;;
33453;SDS011;39400;49.744;7.012;2023-08-01T07:44:07;5.18;;;2.15;;
33453;SDS011;39400;49.744;7.012;2023-08-01T07:46:32;4.18;;;1.70;;
33453;SDS011;39400;49.744;7.012;2023-08-01T07:48:58;3.08;;;1.95;;
33453;SDS011;39400;49.744;7.012;2023-08-01T07:51:23;5.28;;;2.40;;
33453;SDS011;39400;49.744;7.012;2023-08-01T07:53:50;6.57;;;1.73;;
33453;SDS011;39400;49.744;7.012;2023-08-01T07:56:16;8.10;;;2.47;;
33453;SDS011;39400;49.744;7.012;2023-08-01T07:58:41;8.80;;;2.15;;
33453;SDS011;39400;49.744;7.012;2023-08-01T08:01:07;6.72;;;2.13;;
33453;SDS011;39400;49.744;7.012;2023-08-01T08:03:32;4.88;;;2.17;;
33453;SDS011;39400;49.744;7.012;2023-08-01T08:05:57;4.15;;;2.00;;
33453;SDS011;39400;49.744;7.012;2023-08-01T08:08:23;5.25;;;2.42;;
33453;SDS011;39400;49.744;7.012;2023-08-01T08:10:48;9.52;;;2.22;;
33453;SDS011;39400;49.744;7.012;2023-08-01T08:13:13;5.20;;;1.90;;
33453;SDS011;39400;49.744;7.012;2023-08-01T08:15:39;7.43;;;2.45;;
33453;SDS011;39400;49.744;7.012;2023-08-01T08:18:04;10.25;;;2.90;;
33453;SDS011;39400;49.744;7.012;2023-08-01T08:20:34;5.30;;;1.88;;
33453;SDS011;39400;49.744;7.012;2023-08-01T08:23:06;11.77;;;3.15;;
33453;SDS011;39400;49.744;7.012;2023-08-01T08:25:31;7.53;;;2.13;;
33453;SDS011;39400;49.744;7.012;2023-08-01T08:27:57;6.68;;;2.38;;
33453;SDS011;39400;49.744;7.012;2023-08-01T08:30:22;6.38;;;2.53;;
33453;SDS011;39400;49.744;7.012;2023-08-01T08:32:47;5.10;;;2.00;;
33453;SDS011;39400;49.744;7.012;2023-08-01T08:35:12;7.60;;;2.72;;
33453;SDS011;39400;49.744;7.012;2023-08-01T08:37:38;2.53;;;1.60;;
33453;SDS011;39400;49.744;7.012;2023-08-01T08:40:03;6.93;;;1.83;;
33453;SDS011;39400;49.744;7.012;2023-08-01T08:42:29;12.20;;;3.00;;
33453;SDS011;39400;49.744;7.012;2023-08-01T08:44:54;3.50;;;2.13;;
33453;SDS011;39400;49.744;7.012;2023-08-01T08:47:21;8.55;;;2.13;;
33453;SDS011;39400;49.744;7.012;2023-08-01T08:49:50;3.45;;;2.00;;
33453;SDS011;39400;49.744;7.012;2023-08-01T08:52:16;4.82;;;1.65;;
33453;SDS011;39400;49.744;7.012;2023-08-01T08:54:43;5.03;;;1.92;;
33453;SDS011;39400;49.744;7.012;2023-08-01T08:57:08;4.95;;;2.10;;
33453;SDS011;39400;49.744;7.012;2023-08-01T08:59:34;4.68;;;2.00;;
33453;SDS011;39400;49.744;7.012;2023-08-01T09:02:01;4.63;;;1.77;;
33453;SDS011;39400;49.744;7.012;2023-08-01T09:04:27;4.05;;;2.17;;
33453;SDS011;39400;49.744;7.012;2023-08-01T09:06:54;8.10;;;2.63;;
33453;SDS011;39400;49.744;7.012;2023-08-01T09:09:23;5.13;;;1.80;;
33453;SDS011;39400;49.744;7.012;2023-08-01T09:11:49;3.55;;;2.08;;
33453;SDS011;39400;49.744;7.012;2023-08-01T09:14:15;5.57;;;2.38;;
33453;SDS011;39400;49.744;7.012;2023-08-01T09:16:41;33.55;;;4.95;;
33453;SDS011;39400;49.744;7.012;2023-08-01T09:19:08;7.03;;;2.10;;
33453;SDS011;39400;49.744;7.012;2023-08-01T09:21:34;9.73;;;2.38;;
33453;SDS011;39400;49.744;7.012;2023-08-01T09:26:36;30.95;;;5.88;;
33453;SDS011;39400;49.744;7.012;2023-08-01T09:29:02;4.82;;;2.38;;
33453;SDS011;39400;49.744;7.012;2023-08-01T09:31:31;4.80;;;2.00;;
33453;SDS011;39400;49.744;7.012;2023-08-01T09:34:01;15.50;;;3.55;;
33453;SDS011;39400;49.744;7.012;2023-08-01T09:36:27;6.97;;;2.70;;
33453;SDS011;39400;49.744;7.012;2023-08-01T09:38:57;6.13;;;2.55;;
33453;SDS011;39400;49.744;7.012;2023-08-01T09:41:23;3.85;;;2.47;;
33453;SDS011;39400;49.744;7.012;2023-08-01T09:43:49;8.68;;;3.00;;
33453;SDS011;39400;49.744;7.012;2023-08-01T09:46:14;4.97;;;2.17;;
33453;SDS011;39400;49.744;7.012;2023-08-01T09:48:40;10.43;;;5.07;;
33453;SDS011;39400;49.744;7.012;2023-08-01T09:51:15;6.32;;;2.60;;
33453;SDS011;39400;49.744;7.012;2023-08-01T09:53:48;6.47;;;2.45;;
33453;SDS011;39400;49.744;7.012;2023-08-01T09:56:17;6.63;;;1.80;;
33453;SDS011;39400;49.744;7.012;2023-08-01T09:58:43;7.40;;;2.37;;
33453;SDS011;39400;49.744;7.012;2023-08-01T10:01:10;7.40;;;2.78;;
33453;SDS011;39400;49.744;7.012;2023-08-01T10:03:37;6.63;;;2.50;;
33453;SDS011;39400;49.744;7.012;2023-08-01T10:06:06;6.55;;;2.97;;
33453;SDS011;39400;49.744;7.012;2023-08-01T10:08:33;6.15;;;2.70;;
33453;SDS011;39400;49.744;7.012;2023-08-01T10:10:59;5.32;;;2.30;;
33453;SDS011;39400;49.744;7.012;2023-08-01T10:13:28;8.88;;;2.47;;
33453;SDS011;39400;49.744;7.012;2023-08-01T10:15:54;9.32;;;2.75;;
33453;SDS011;39400;49.744;7.012;2023-08-01T10:18:20;7.40;;;2.15;;
33453;SDS011;39400;49.744;7.012;2023-08-01T10:20:45;8.25;;;3.15;;
33453;SDS011;39400;49.744;7.012;2023-08-01T10:23:12;8.50;;;2.55;;
33453;SDS011;39400;49.744;7.012;2023-08-01T10:25:38;5.50;;;2.78;;
33453;SDS011;39400;49.744;7.012;2023-08-01T10:28:05;8.32;;;2.70;;
33453;SDS011;39400;49.744;7.012;2023-08-01T10:30:31;4.93;;;2.53;;
33453;SDS011;39400;49.744;7.012;2023-08-01T10:32:57;5.18;;;2.20;;
33453;SDS011;39400;49.744;7.012;2023-08-01T10:35:36;6.32;;;2.28;;
33453;SDS011;39400;49.744;7.012;2023-08-01T10:40:33;6.30;;;2.13;;
33453;SDS011;39400;49.744;7.012;2023-08-01T10:43:05;5.90;;;2.08;;
33453;SDS011;39400;49.744;7.012;2023-08-01T10:45:30;5.13;;;2.13;;
33453;SDS011;39400;49.744;7.012;2023-08-01T10:48:08;6.50;;;2.60;;
33453;SDS011;39400;49.744;7.012;2023-08-01T10:50:35;8.13;;;2.40;;
33453;SDS011;39400;49.744;7.012;2023-08-01T10:53:04;6.35;;;2.30;;
33453;SDS011;39400;49.744;7.012;2023-08-01T10:55:42;5.40;;;2.63;;
33453;SDS011;39400;49.744;7.012;2023-08-01T10:58:08;6.82;;;3.03;;
33453;SDS011;39400;49.744;7.012;2023-08-01T11:00:34;5.43;;;2.55;;
33453;SDS011;39400;49.744;7.012;2023-08-01T11:02:59;8.68;;;2.70;;
33453;SDS011;39400;49.744;7.012;2023-08-01T11:05:24;6.47;;;2.67;;
33453;SDS011;39400;49.744;7.012;2023-08-01T11:07:53;11.20;;;2.75;;
33453;SDS011;39400;49.744;7.012;2023-08-01T11:10:19;4.60;;;2.22;;
33453;SDS011;39400;49.744;7.012;2023-08-01T11:12:44;4.38;;;2.40;;
33453;SDS011;39400;49.744;7.012;2023-08-01T11:15:11;6.32;;;2.80;;
33453;SDS011;39400;49.744;7.012;2023-08-01T11:17:38;5.13;;;2.35;;
33453;SDS011;39400;49.744;7.012;2023-08-01T11:20:08;6.38;;;2.25;;
33453;SDS011;39400;49.744;7.012;2023-08-01T11:22:36;6.63;;;2.58;;
33453;SDS011;39400;49.744;7.012;2023-08-01T11:25:02;5.88;;;2.67;;
33453;SDS011;39400;49.744;7.012;2023-08-01T11:27:28;4.80;;;2.08;;
33453;SDS011;39400;49.744;7.012;2023-08-01T11:29:54;6.28;;;2.70;;
33453;SDS011;39400;49.744;7.012;2023-08-01T11:32:21;4.70;;;2.22;;
33453;SDS011;39400;49.744;7.012;2023-08-01T11:34:46;6.38;;;2.17;;
33453;SDS011;39400;49.744;7.012;2023-08-01T11:37:13;6.38;;;2.55;;
33453;SDS011;39400;49.744;7.012;2023-08-01T11:39:39;6.53;;;2.67;;
33453;SDS011;39400;49.744;7.012;2023-08-01T11:42:06;6.43;;;2.72;;
33453;SDS011;39400;49.744;7.012;2023-08-01T11:44:31;5.88;;;2.70;;
33453;SDS011;39400;49.744;7.012;2023-08-01T11:46:56;8.07;;;2.70;;
33453;SDS011;39400;49.744;7.012;2023-08-01T11:49:22;4.50;;;1.90;;
33453;SDS011;39400;49.744;7.012;2023-08-01T11:51:47;4.63;;;2.17;;
33453;SDS011;39400;49.744;7.012;2023-08-01T11:54:13;5.53;;;2.45;;
33453;SDS011;39400;49.744;7.012;2023-08-01T11:56:39;7.82;;;3.10;;
33453;SDS011;39400;49.744;7.012;2023-08-01T11:59:13;6.32;;;2.70;;
33453;SDS011;39400;49.744;7.012;2023-08-01T12:01:41;5.45;;;2.40;;
33453;SDS011;39400;49.744;7.012;2023-08-01T12:04:08;7.28;;;2.00;;
33453;SDS011;39400;49.744;7.012;2023-08-01T12:06:33;5.82;;;3.17;;
33453;SDS011;39400;49.744;7.012;2023-08-01T12:09:11;5.55;;;2.13;;
33453;SDS011;39400;49.744;7.012;2023-08-01T12:11:38;6.88;;;2.30;;
33453;SDS011;39400;49.744;7.012;2023-08-01T12:16:35;10.13;;;4.80;;
33453;SDS011;39400;49.744;7.012;2023-08-01T12:19:02;10.57;;;4.70;;
33453;SDS011;39400;49.744;7.012;2023-08-01T12:21:28;17.13;;;3.03;;
33453;SDS011;39400;49.744;7.012;2023-08-01T12:23:54;9.10;;;2.85;;
33453;SDS011;39400;49.744;7.012;2023-08-01T12:26:19;3.35;;;2.08;;
33453;SDS011;39400;49.744;7.012;2023-08-01T12:28:44;7.28;;;2.20;;
33453;SDS011;39400;49.744;7.012;2023-08-01T12:31:09;8.50;;;2.40;;
33453;SDS011;39400;49.744;7.012;2023-08-01T12:33:35;6.03;;;2.17;;
33453;SDS011;39400;49.744;7.012;2023-08-01T12:36:00;4.93;;;2.13;;
33453;SDS011;39400;49.744;7.012;2023-08-01T12:38:25;7.07;;;1.95;;
33453;SDS011;39400;49.744;7.012;2023-08-01T12:40:51;8.43;;;2.45;;
33453;SDS011;39400;49.744;7.012;2023-08-01T12:43:16;4.03;;;1.83;;
33453;SDS011;39400;49.744;7.012;2023-08-01T12:45:42;5.40;;;2.15;;
33453;SDS011;39400;49.744;7.012;2023-08-01T12:48:07;10.30;;;2.75;;
33453;SDS011;39400;49.744;7.012;2023-08-01T12:50:33;6.75;;;2.38;;
33453;SDS011;39400;49.744;7.012;2023-08-01T12:52:58;5.40;;;1.92;;
33453;SDS011;39400;49.744;7.012;2023-08-01T12:55:23;7.45;;;2.38;;
33453;SDS011;39400;49.744;7.012;2023-08-01T12:57:49;4.30;;;1.90;;
33453;SDS011;39400;49.744;7.012;2023-08-01T13:00:14;4.75;;;2.35;;
33453;SDS011;39400;49.744;7.012;2023-08-01T13:02:40;5.13;;;2.15;;
33453;SDS011;39400;49.744;7.012;2023-08-01T13:05:05;12.32;;;2.58;;
33453;SDS011;39400;49.744;7.012;2023-08-01T13:07:31;3.88;;;1.80;;
33453;SDS011;39400;49.744;7.012;2023-08-01T13:09:56;5.05;;;1.85;;
33453;SDS011;39400;49.744;7.012;2023-08-01T13:12:22;4.40;;;1.92;;
33453;SDS011;39400;49.744;7.012;2023-08-01T13:14:47;4.57;;;1.95;;
33453;SDS011;39400;49.744;7.012;2023-08-01T13:17:12;3.55;;;1.75;;
33453;SDS011;39400;49.744;7.012;2023-08-01T13:19:37;3.67;;;2.22;;
33453;SDS011;39400;49.744;7.012;2023-08-01T13:22:03;5.65;;;2.38;;
33453;SDS011;39400;49.744;7.012;2023-08-01T13:24:28;8.65;;;1.80;;
33453;SDS011;39400;49.744;7.012;2023-08-01T13:26:54;4.82;;;2.28;;
33453;SDS011;39400;49.744;7.012;2023-08-01T13:29:19;3.28;;;1.48;;
33453;SDS011;39400;49.744;7.012;2023-08-01T13:31:44;6.97;;;1.85;;
33453;SDS011;39400;49.744;7.012;2023-08-01T13:34:09;8.63;;;2.30;;
33453;SDS011;39400;49.744;7.012;2023-08-01T13:36:35;6.00;;;2.28;;
33453;SDS011;39400;49.744;7.012;2023-08-01T13:39:00;4.55;;;1.50;;
33453;SDS011;39400;49.744;7.012;2023-08-01T13:41:25;6.45;;;2.08;;
33453;SDS011;39400;49.744;7.012;2023-08-01T13:43:51;6.07;;;1.75;;
33453;SDS011;39400;49.744;7.012;2023-08-01T13:46:17;3.58;;;1.90;;
33453;SDS011;39400;49.744;7.012;2023-08-01T13:48:46;6.85;;;2.10;;
33453;SDS011;39400;49.744;7.012;2023-08-01T13:51:12;5.70;;;2.60;;
33453;SDS011;39400;49.744;7.012;2023-08-01T13:53:38;7.35;;;3.00;;
33453;SDS011;39400;49.744;7.012;2023-08-01T13:56:03;11.65;;;2.95;;
33453;SDS011;39400;49.744;7.012;2023-08-01T13:58:29;6.38;;;2.55;;
33453;SDS011;39400;49.744;7.012;2023-08-01T14:00:54;10.20;;;2.70;;
33453;SDS011;39400;49.744;7.012;2023-08-01T14:03:19;11.18;;;3.20;;
33453;SDS011;39400;49.744;7.012;2023-08-01T14:05:44;15.23;;;5.72;;
33453;SDS011;39400;49.744;7.012;2023-08-01T14:08:10;7.25;;;2.25;;
33453;SDS011;39400;49.744;7.012;2023-08-01T14:10:35;7.38;;;1.98;;
33453;SDS011;39400;49.744;7.012;2023-08-01T14:13:00;8.90;;;2.28;;
33453;SDS011;39400;49.744;7.012;2023-08-01T14:15:26;6.47;;;2.25;;
33453;SDS011;39400;49.744;7.012;2023-08-01T14:17:51;6.10;;;2.22;;
33453;SDS011;39400;49.744;7.012;2023-08-01T14:20:16;7.00;;;2.13;;
33453;SDS011;39400;49.744;7.012;2023-08-01T14:22:41;6.10;;;2.20;;
33453;SDS011;39400;49.744;7.012;2023-08-01T14:25:07;5.45;;;1.75;;
33453;SDS011;39400;49.744;7.012;2023-08-01T14:27:32;6.15;;;1.85;;
33453;SDS011;39400;49.744;7.012;2023-08-01T14:29:58;4.63;;;2.08;;
33453;SDS011;39400;49.744;7.012;2023-08-01T14:32:23;6.07;;;1.60;;
33453;SDS011;39400;49.744;7.012;2023-08-01T14:34:48;5.63;;;1.88;;
33453;SDS011;39400;49.744;7.012;2023-08-01T14:37:13;4.25;;;1.55;;
33453;SDS011;39400;49.744;7.012;2023-08-01T14:39:39;7.95;;;2.33;;
33453;SDS011;39400;49.744;7.012;2023-08-01T14:42:04;5.05;;;2.30;;
33453;SDS011;39400;49.744;7.012;2023-08-01T14:44:30;5.30;;;1.90;;
33453;SDS011;39400;49.744;7.012;2023-08-01T14:46:55;5.65;;;2.25;;